sensor_id;sensor_type;location;lat;lon;timestamp;P1;durP1;ratioP1;P2;durP2;ratioP2
22080;SDS011;11207;59.512;18.050;2023-03-14T00:01:22;9.17;;;3.93;;
22080;SDS011;11207;59.512;18.050;2023-03-14T00:03:48;6.17;;;3.77;;
22080;SDS011;11207;59.512;18.050;2023-03-14T00:06:14;6.50;;;3.77;;
22080;SDS011;11207;59.512;18.050;2023-03-14T00:08:41;7.67;;;3.33;;
22080;SDS011;11207;59.512;18.050;2023-03-14T00:11:09;8.10;;;3.57;;
22080;SDS011;11207;59.512;18.050;2023-03-14T00:13:36;9.30;;;4.03;;
22080;SDS011;11207;59.512;18.050;2023-03-14T00:16:03;3.40;;;3.07;;
22080;SDS011;11207;59.512;18.050;2023-03-14T00:18:37;7.03;;;3.67;;
22080;SDS011;11207;59.512;18.050;2023-03-14T00:21:04;7.13;;;3.50;;
22080;SDS011;11207;59.512;18.050;2023-03-14T00:23:32;7.53;;;3.43;;
22080;SDS011;11207;59.512;18.050;2023-03-14T00:25:59;4.97;;;3.43;;
22080;SDS011;11207;59.512;18.050;2023-03-14T00:28:26;8.40;;;3.33;;
22080;SDS011;11207;59.512;18.050;2023-03-14T00:30:52;5.10;;;3.13;;
22080;SDS011;11207;59.512;18.050;2023-03-14T00:33:18;7.10;;;3.53;;
22080;SDS011;11207;59.512;18.050;2023-03-14T00:35:51;4.67;;;3.10;;
22080;SDS011;11207;59.512;18.050;2023-03-14T00:38:24;5.10;;;3.30;;
22080;SDS011;11207;59.512;18.050;2023-03-14T00:40:51;5.23;;;3.20;;
22080;SDS011;11207;59.512;18.050;2023-03-14T00:43:17;6.40;;;3.23;;
22080;SDS011;11207;59.512;18.050;2023-03-14T00:45:43;3.50;;;3.13;;
22080;SDS011;11207;59.512;18.050;2023-03-14T00:48:09;8.33;;;3.80;;
22080;SDS011;11207;59.512;18.050;2023-03-14T00:50:35;7.07;;;3.57;;
22080;SDS011;11207;59.512;18.050;2023-03-14T00:53:01;4.23;;;3.67;;
22080;SDS011;11207;59.512;18.050;2023-03-14T00:55:26;3.93;;;3.50;;
22080;SDS011;11207;59.512;18.050;2023-03-14T00:57:52;3.77;;;3.40;;
22080;SDS011;11207;59.512;18.050;2023-03-14T01:00:17;6.17;;;3.20;;
22080;SDS011;11207;59.512;18.050;2023-03-14T01:02:43;14.33;;;4.10;;
22080;SDS011;11207;59.512;18.050;2023-03-14T01:05:09;6.47;;;3.47;;
22080;SDS011;11207;59.512;18.050;2023-03-14T01:07:37;7.53;;;3.63;;
22080;SDS011;11207;59.512;18.050;2023-03-14T01:10:03;5.83;;;3.70;;
22080;SDS011;11207;59.512;18.050;2023-03-14T01:12:30;5.83;;;3.20;;
22080;SDS011;11207;59.512;18.050;2023-03-14T01:14:55;6.97;;;3.40;;
22080;SDS011;11207;59.512;18.050;2023-03-14T01:17:21;7.37;;;3.63;;
22080;SDS011;11207;59.512;18.050;2023-03-14T01:19:47;4.27;;;3.10;;
22080;SDS011;11207;59.512;18.050;2023-03-14T01:22:13;7.37;;;3.30;;
22080;SDS011;11207;59.512;18.050;2023-03-14T01:24:38;7.60;;;3.43;;
22080;SDS011;11207;59.512;18.050;2023-03-14T01:27:04;5.90;;;3.33;;
22080;SDS011;11207;59.512;18.050;2023-03-14T01:29:29;5.43;;;3.20;;
22080;SDS011;11207;59.512;18.050;2023-03-14T01:31:55;10.30;;;3.83;;
22080;SDS011;11207;59.512;18.050;2023-03-14T01:34:21;4.03;;;2.80;;
22080;SDS011;11207;59.512;18.050;2023-03-14T01:36:46;7.90;;;3.43;;
22080;SDS011;11207;59.512;18.050;2023-03-14T01:39:12;4.87;;;3.50;;
22080;SDS011;11207;59.512;18.050;2023-03-14T01:41:38;6.50;;;3.33;;
22080;SDS011;11207;59.512;18.050;2023-03-14T01:44:04;5.97;;;3.10;;
22080;SDS011;11207;59.512;18.050;2023-03-14T01:46:40;5.47;;;3.67;;
22080;SDS011;11207;59.512;18.050;2023-03-14T01:52:06;11.63;;;4.07;;
22080;SDS011;11207;59.512;18.050;2023-03-14T01:54:42;5.77;;;3.20;;
22080;SDS011;11207;59.512;18.050;2023-03-14T01:57:14;9.03;;;3.43;;
22080;SDS011;11207;59.512;18.050;2023-03-14T02:00:26;3.87;;;3.07;;
22080;SDS011;11207;59.512;18.050;2023-03-14T02:02:39;5.23;;;3.27;;
22080;SDS011;11207;59.512;18.050;2023-03-14T02:05:14;6.20;;;3.27;;
22080;SDS011;11207;59.512;18.050;2023-03-14T02:07:48;6.63;;;3.20;;
22080;SDS011;11207;59.512;18.050;2023-03-14T02:10:18;3.43;;;2.90;;
22080;SDS011;11207;59.512;18.050;2023-03-14T02:12:49;3.17;;;2.87;;
22080;SDS011;11207;59.512;18.050;2023-03-14T02:15:17;8.30;;;3.37;;
22080;SDS011;11207;59.512;18.050;2023-03-14T02:17:43;3.47;;;2.77;;
22080;SDS011;11207;59.512;18.050;2023-03-14T02:20:24;9.20;;;3.57;;
22080;SDS011;11207;59.512;18.050;2023-03-14T02:23:07;6.83;;;2.87;;
22080;SDS011;11207;59.512;18.050;2023-03-14T02:27:59;3.83;;;2.60;;
22080;SDS011;11207;59.512;18.050;2023-03-14T02:30:27;3.17;;;2.70;;
22080;SDS011;11207;59.512;18.050;2023-03-14T02:32:55;4.27;;;2.93;;
22080;SDS011;11207;59.512;18.050;2023-03-14T02:35:25;7.43;;;3.03;;
22080;SDS011;11207;59.512;18.050;2023-03-14T02:38:03;5.87;;;2.83;;
22080;SDS011;11207;59.512;18.050;2023-03-14T02:40:34;4.90;;;2.60;;
22080;SDS011;11207;59.512;18.050;2023-03-14T02:42:59;4.03;;;2.90;;
22080;SDS011;11207;59.512;18.050;2023-03-14T02:45:28;3.73;;;2.70;;
22080;SDS011;11207;59.512;18.050;2023-03-14T02:48:00;4.00;;;2.70;;
22080;SDS011;11207;59.512;18.050;2023-03-14T02:50:31;6.37;;;3.17;;
22080;SDS011;11207;59.512;18.050;2023-03-14T02:52:59;6.40;;;3.23;;
22080;SDS011;11207;59.512;18.050;2023-03-14T02:55:24;2.97;;;2.50;;
22080;SDS011;11207;59.512;18.050;2023-03-14T02:57:51;4.50;;;2.80;;
22080;SDS011;11207;59.512;18.050;2023-03-14T03:00:17;3.07;;;2.83;;
22080;SDS011;11207;59.512;18.050;2023-03-14T03:02:44;2.70;;;2.50;;
22080;SDS011;11207;59.512;18.050;2023-03-14T03:05:10;5.77;;;2.67;;
22080;SDS011;11207;59.512;18.050;2023-03-14T03:07:35;2.70;;;2.50;;
22080;SDS011;11207;59.512;18.050;2023-03-14T03:10:01;5.80;;;2.90;;
22080;SDS011;11207;59.512;18.050;2023-03-14T03:12:27;3.90;;;2.80;;
22080;SDS011;11207;59.512;18.050;2023-03-14T03:14:53;5.17;;;2.70;;
22080;SDS011;11207;59.512;18.050;2023-03-14T03:17:18;4.07;;;2.60;;
22080;SDS011;11207;59.512;18.050;2023-03-14T03:19:44;2.80;;;2.60;;
22080;SDS011;11207;59.512;18.050;2023-03-14T03:22:09;4.03;;;2.87;;
22080;SDS011;11207;59.512;18.050;2023-03-14T03:24:35;5.33;;;2.60;;
22080;SDS011;11207;59.512;18.050;2023-03-14T03:27:00;3.10;;;2.80;;
22080;SDS011;11207;59.512;18.050;2023-03-14T03:29:26;5.50;;;2.83;;
22080;SDS011;11207;59.512;18.050;2023-03-14T03:31:52;3.47;;;2.83;;
22080;SDS011;11207;59.512;18.050;2023-03-14T03:34:19;2.90;;;2.50;;
22080;SDS011;11207;59.512;18.050;2023-03-14T03:36:44;3.87;;;2.43;;
22080;SDS011;11207;59.512;18.050;2023-03-14T03:39:10;3.97;;;2.70;;
22080;SDS011;11207;59.512;18.050;2023-03-14T03:41:36;5.13;;;3.13;;
22080;SDS011;11207;59.512;18.050;2023-03-14T03:44:01;4.27;;;2.53;;
22080;SDS011;11207;59.512;18.050;2023-03-14T03:46:27;4.20;;;2.50;;
22080;SDS011;11207;59.512;18.050;2023-03-14T03:48:56;2.90;;;2.60;;
22080;SDS011;11207;59.512;18.050;2023-03-14T03:51:22;4.43;;;3.03;;
22080;SDS011;11207;59.512;18.050;2023-03-14T03:53:49;2.93;;;2.50;;
22080;SDS011;11207;59.512;18.050;2023-03-14T03:56:14;2.80;;;2.57;;
22080;SDS011;11207;59.512;18.050;2023-03-14T03:58:40;5.40;;;2.83;;
22080;SDS011;11207;59.512;18.050;2023-03-14T04:01:07;3.87;;;2.80;;
22080;SDS011;11207;59.512;18.050;2023-03-14T04:03:33;6.43;;;2.67;;
22080;SDS011;11207;59.512;18.050;2023-03-14T04:06:02;3.37;;;2.77;;
22080;SDS011;11207;59.512;18.050;2023-03-14T04:08:30;6.73;;;2.97;;
22080;SDS011;11207;59.512;18.050;2023-03-14T04:10:56;5.20;;;2.97;;
22080;SDS011;11207;59.512;18.050;2023-03-14T04:13:23;5.93;;;2.70;;
22080;SDS011;11207;59.512;18.050;2023-03-14T04:15:50;8.33;;;2.90;;
22080;SDS011;11207;59.512;18.050;2023-03-14T04:18:16;5.10;;;2.80;;
22080;SDS011;11207;59.512;18.050;2023-03-14T04:20:42;9.77;;;3.47;;
22080;SDS011;11207;59.512;18.050;2023-03-14T04:23:07;2.90;;;2.60;;
22080;SDS011;11207;59.512;18.050;2023-03-14T04:25:33;3.93;;;2.93;;
22080;SDS011;11207;59.512;18.050;2023-03-14T04:27:58;4.13;;;3.07;;
22080;SDS011;11207;59.512;18.050;2023-03-14T04:30:24;4.10;;;3.07;;
22080;SDS011;11207;59.512;18.050;2023-03-14T04:32:50;5.00;;;2.77;;
22080;SDS011;11207;59.512;18.050;2023-03-14T04:35:15;6.23;;;3.10;;
22080;SDS011;11207;59.512;18.050;2023-03-14T04:37:41;4.10;;;2.70;;
22080;SDS011;11207;59.512;18.050;2023-03-14T04:40:08;5.50;;;3.30;;
22080;SDS011;11207;59.512;18.050;2023-03-14T04:42:34;6.97;;;2.90;;
22080;SDS011;11207;59.512;18.050;2023-03-14T04:45:00;5.97;;;2.90;;
22080;SDS011;11207;59.512;18.050;2023-03-14T04:47:26;10.57;;;3.37;;
22080;SDS011;11207;59.512;18.050;2023-03-14T04:49:52;5.97;;;3.10;;
22080;SDS011;11207;59.512;18.050;2023-03-14T04:52:17;6.27;;;2.80;;
22080;SDS011;11207;59.512;18.050;2023-03-14T04:54:43;6.00;;;3.13;;
22080;SDS011;11207;59.512;18.050;2023-03-14T04:57:08;11.93;;;3.30;;
22080;SDS011;11207;59.512;18.050;2023-03-14T04:59:34;8.90;;;3.23;;
22080;SDS011;11207;59.512;18.050;2023-03-14T05:02:00;9.43;;;3.60;;
22080;SDS011;11207;59.512;18.050;2023-03-14T05:04:25;6.23;;;2.93;;
22080;SDS011;11207;59.512;18.050;2023-03-14T05:06:51;5.13;;;3.07;;
22080;SDS011;11207;59.512;18.050;2023-03-14T05:09:17;5.80;;;2.90;;
22080;SDS011;11207;59.512;18.050;2023-03-14T05:11:42;5.03;;;2.80;;
22080;SDS011;11207;59.512;18.050;2023-03-14T05:14:08;6.23;;;3.33;;
22080;SDS011;11207;59.512;18.050;2023-03-14T05:16:33;5.50;;;3.20;;
22080;SDS011;11207;59.512;18.050;2023-03-14T05:18:59;7.93;;;3.23;;
22080;SDS011;11207;59.512;18.050;2023-03-14T05:21:26;4.10;;;3.00;;
22080;SDS011;11207;59.512;18.050;2023-03-14T05:23:52;3.47;;;2.93;;
22080;SDS011;11207;59.512;18.050;2023-03-14T05:26:17;8.43;;;5.00;;
22080;SDS011;11207;59.512;18.050;2023-03-14T05:28:43;5.93;;;3.73;;
22080;SDS011;11207;59.512;18.050;2023-03-14T05:31:09;8.77;;;4.23;;
22080;SDS011;11207;59.512;18.050;2023-03-14T05:33:34;10.03;;;3.40;;
22080;SDS011;11207;59.512;18.050;2023-03-14T05:36:00;4.70;;;3.53;;
22080;SDS011;11207;59.512;18.050;2023-03-14T05:38:25;7.47;;;3.50;;
22080;SDS011;11207;59.512;18.050;2023-03-14T05:40:51;10.33;;;3.30;;
22080;SDS011;11207;59.512;18.050;2023-03-14T05:43:17;10.37;;;3.30;;
22080;SDS011;11207;59.512;18.050;2023-03-14T05:45:42;6.83;;;3.00;;
22080;SDS011;11207;59.512;18.050;2023-03-14T05:48:08;7.10;;;3.47;;
22080;SDS011;11207;59.512;18.050;2023-03-14T05:50:34;7.77;;;3.73;;
22080;SDS011;11207;59.512;18.050;2023-03-14T05:53:00;7.80;;;3.30;;
22080;SDS011;11207;59.512;18.050;2023-03-14T05:55:25;6.37;;;3.60;;
22080;SDS011;11207;59.512;18.050;2023-03-14T05:57:52;4.87;;;3.00;;
22080;SDS011;11207;59.512;18.050;2023-03-14T06:00:19;10.97;;;3.13;;
22080;SDS011;11207;59.512;18.050;2023-03-14T06:02:45;6.17;;;3.53;;
22080;SDS011;11207;59.512;18.050;2023-03-14T06:05:11;6.43;;;3.77;;
22080;SDS011;11207;59.512;18.050;2023-03-14T06:07:37;11.67;;;3.60;;
22080;SDS011;11207;59.512;18.050;2023-03-14T06:10:02;7.63;;;3.13;;
22080;SDS011;11207;59.512;18.050;2023-03-14T06:12:28;7.40;;;3.67;;
22080;SDS011;11207;59.512;18.050;2023-03-14T06:14:54;4.53;;;2.97;;
22080;SDS011;11207;59.512;18.050;2023-03-14T06:17:20;2.90;;;2.63;;
22080;SDS011;11207;59.512;18.050;2023-03-14T06:19:45;5.53;;;3.13;;
22080;SDS011;11207;59.512;18.050;2023-03-14T06:22:11;7.30;;;3.53;;
22080;SDS011;11207;59.512;18.050;2023-03-14T06:24:36;7.60;;;2.87;;
22080;SDS011;11207;59.512;18.050;2023-03-14T06:27:02;3.43;;;2.80;;
22080;SDS011;11207;59.512;18.050;2023-03-14T06:29:28;4.77;;;3.23;;
22080;SDS011;11207;59.512;18.050;2023-03-14T06:31:54;3.43;;;3.13;;
22080;SDS011;11207;59.512;18.050;2023-03-14T06:34:20;5.20;;;2.93;;
22080;SDS011;11207;59.512;18.050;2023-03-14T06:36:46;2.87;;;2.60;;
22080;SDS011;11207;59.512;18.050;2023-03-14T06:39:11;4.23;;;2.60;;
22080;SDS011;11207;59.512;18.050;2023-03-14T06:41:37;3.63;;;2.30;;
22080;SDS011;11207;59.512;18.050;2023-03-14T06:44:03;7.10;;;2.90;;
22080;SDS011;11207;59.512;18.050;2023-03-14T06:46:29;3.97;;;2.60;;
22080;SDS011;11207;59.512;18.050;2023-03-14T06:48:54;5.03;;;2.60;;
22080;SDS011;11207;59.512;18.050;2023-03-14T06:51:20;2.70;;;2.50;;
22080;SDS011;11207;59.512;18.050;2023-03-14T06:53:46;3.30;;;2.50;;
22080;SDS011;11207;59.512;18.050;2023-03-14T06:56:11;2.57;;;2.40;;
22080;SDS011;11207;59.512;18.050;2023-03-14T06:58:37;3.37;;;2.50;;
22080;SDS011;11207;59.512;18.050;2023-03-14T07:01:02;2.70;;;2.50;;
22080;SDS011;11207;59.512;18.050;2023-03-14T07:03:28;2.73;;;2.53;;
22080;SDS011;11207;59.512;18.050;2023-03-14T07:05:54;3.10;;;2.50;;
22080;SDS011;11207;59.512;18.050;2023-03-14T07:08:19;4.40;;;2.40;;
22080;SDS011;11207;59.512;18.050;2023-03-14T07:10:45;3.30;;;2.20;;
22080;SDS011;11207;59.512;18.050;2023-03-14T07:13:11;2.60;;;2.30;;
22080;SDS011;11207;59.512;18.050;2023-03-14T07:15:36;2.60;;;2.40;;
22080;SDS011;11207;59.512;18.050;2023-03-14T07:18:02;6.73;;;2.63;;
22080;SDS011;11207;59.512;18.050;2023-03-14T07:20:28;3.33;;;2.30;;
22080;SDS011;11207;59.512;18.050;2023-03-14T07:22:54;2.37;;;2.23;;
22080;SDS011;11207;59.512;18.050;2023-03-14T07:25:20;6.50;;;2.67;;
22080;SDS011;11207;59.512;18.050;2023-03-14T07:27:45;2.30;;;2.20;;
22080;SDS011;11207;59.512;18.050;2023-03-14T07:30:13;3.53;;;2.30;;
22080;SDS011;11207;59.512;18.050;2023-03-14T07:32:38;2.80;;;2.60;;
22080;SDS011;11207;59.512;18.050;2023-03-14T07:35:04;2.30;;;2.20;;
22080;SDS011;11207;59.512;18.050;2023-03-14T07:37:31;3.00;;;2.20;;
22080;SDS011;11207;59.512;18.050;2023-03-14T07:39:56;2.20;;;2.10;;
22080;SDS011;11207;59.512;18.050;2023-03-14T07:42:22;2.53;;;2.30;;
22080;SDS011;11207;59.512;18.050;2023-03-14T07:44:47;3.37;;;2.50;;
22080;SDS011;11207;59.512;18.050;2023-03-14T07:47:13;2.47;;;2.37;;
22080;SDS011;11207;59.512;18.050;2023-03-14T07:49:38;3.93;;;2.30;;
22080;SDS011;11207;59.512;18.050;2023-03-14T07:52:04;2.30;;;2.20;;
22080;SDS011;11207;59.512;18.050;2023-03-14T07:54:30;2.20;;;2.10;;
22080;SDS011;11207;59.512;18.050;2023-03-14T07:56:55;2.20;;;2.10;;
22080;SDS011;11207;59.512;18.050;2023-03-14T07:59:21;2.20;;;2.10;;
22080;SDS011;11207;59.512;18.050;2023-03-14T08:01:46;2.10;;;2.00;;
22080;SDS011;11207;59.512;18.050;2023-03-14T08:04:12;2.43;;;2.23;;
22080;SDS011;11207;59.512;18.050;2023-03-14T08:06:38;2.50;;;2.30;;
22080;SDS011;11207;59.512;18.050;2023-03-14T08:09:03;2.80;;;2.33;;
22080;SDS011;11207;59.512;18.050;2023-03-14T08:11:29;2.20;;;2.10;;
22080;SDS011;11207;59.512;18.050;2023-03-14T08:13:55;2.20;;;2.10;;
22080;SDS011;11207;59.512;18.050;2023-03-14T08:16:20;2.10;;;2.00;;
22080;SDS011;11207;59.512;18.050;2023-03-14T08:18:46;2.10;;;2.00;;
22080;SDS011;11207;59.512;18.050;2023-03-14T08:21:12;2.77;;;2.33;;
22080;SDS011;11207;59.512;18.050;2023-03-14T08:23:38;2.30;;;2.20;;
22080;SDS011;11207;59.512;18.050;2023-03-14T08:26:04;2.50;;;2.40;;
22080;SDS011;11207;59.512;18.050;2023-03-14T08:28:30;2.40;;;2.30;;
22080;SDS011;11207;59.512;18.050;2023-03-14T08:30:58;2.40;;;2.20;;
22080;SDS011;11207;59.512;18.050;2023-03-14T08:33:25;2.20;;;2.10;;
22080;SDS011;11207;59.512;18.050;2023-03-14T08:35:52;2.60;;;2.30;;
22080;SDS011;11207;59.512;18.050;2023-03-14T08:38:18;2.37;;;2.27;;
22080;SDS011;11207;59.512;18.050;2023-03-14T08:40:44;2.80;;;2.60;;
22080;SDS011;11207;59.512;18.050;2023-03-14T08:43:09;2.30;;;2.20;;
22080;SDS011;11207;59.512;18.050;2023-03-14T08:45:35;2.40;;;2.30;;
22080;SDS011;11207;59.512;18.050;2023-03-14T08:48:01;2.77;;;2.33;;
22080;SDS011;11207;59.512;18.050;2023-03-14T08:50:26;2.30;;;2.20;;
22080;SDS011;11207;59.512;18.050;2023-03-14T08:52:52;4.07;;;2.40;;
22080;SDS011;11207;59.512;18.050;2023-03-14T08:55:17;2.30;;;2.20;;
22080;SDS011;11207;59.512;18.050;2023-03-14T08:57:43;2.30;;;2.10;;
22080;SDS011;11207;59.512;18.050;2023-03-14T09:00:09;2.30;;;2.20;;
22080;SDS011;11207;59.512;18.050;2023-03-14T09:02:40;2.30;;;2.20;;
22080;SDS011;11207;59.512;18.050;2023-03-14T09:05:06;2.30;;;2.20;;
22080;SDS011;11207;59.512;18.050;2023-03-14T09:07:33;2.20;;;2.10;;
22080;SDS011;11207;59.512;18.050;2023-03-14T09:09:58;2.40;;;2.30;;
22080;SDS011;11207;59.512;18.050;2023-03-14T09:12:24;2.30;;;2.20;;
22080;SDS011;11207;59.512;18.050;2023-03-14T09:14:49;2.60;;;2.50;;
22080;SDS011;11207;59.512;18.050;2023-03-14T09:17:15;2.30;;;2.20;;
22080;SDS011;11207;59.512;18.050;2023-03-14T09:19:41;2.67;;;2.47;;
22080;SDS011;11207;59.512;18.050;2023-03-14T09:22:06;2.60;;;2.40;;
22080;SDS011;11207;59.512;18.050;2023-03-14T09:24:32;2.50;;;2.40;;
22080;SDS011;11207;59.512;18.050;2023-03-14T09:26:57;2.50;;;2.40;;
22080;SDS011;11207;59.512;18.050;2023-03-14T09:29:23;2.30;;;2.20;;
22080;SDS011;11207;59.512;18.050;2023-03-14T09:31:49;2.50;;;2.40;;
22080;SDS011;11207;59.512;18.050;2023-03-14T09:34:15;2.60;;;2.50;;
22080;SDS011;11207;59.512;18.050;2023-03-14T09:36:41;2.50;;;2.40;;
22080;SDS011;11207;59.512;18.050;2023-03-14T09:39:09;2.43;;;2.33;;
22080;SDS011;11207;59.512;18.050;2023-03-14T09:41:36;2.37;;;2.27;;
22080;SDS011;11207;59.512;18.050;2023-03-14T09:46:50;2.87;;;2.67;;
22080;SDS011;11207;59.512;18.050;2023-03-14T09:49:28;2.70;;;2.60;;
22080;SDS011;11207;59.512;18.050;2023-03-14T09:52:04;2.60;;;2.50;;
22080;SDS011;11207;59.512;18.050;2023-03-14T09:54:47;2.50;;;2.40;;
22080;SDS011;11207;59.512;18.050;2023-03-14T09:57:17;2.60;;;2.50;;
22080;SDS011;11207;59.512;18.050;2023-03-14T09:59:44;2.30;;;2.20;;
22080;SDS011;11207;59.512;18.050;2023-03-14T10:02:17;2.67;;;2.47;;
22080;SDS011;11207;59.512;18.050;2023-03-14T10:04:49;2.63;;;2.53;;
22080;SDS011;11207;59.512;18.050;2023-03-14T10:07:18;4.43;;;4.03;;
22080;SDS011;11207;59.512;18.050;2023-03-14T10:09:48;5.73;;;5.17;;
22080;SDS011;11207;59.512;18.050;2023-03-14T10:12:15;3.40;;;3.20;;
22080;SDS011;11207;59.512;18.050;2023-03-14T10:14:49;2.93;;;2.73;;
22080;SDS011;11207;59.512;18.050;2023-03-14T10:17:19;2.40;;;2.30;;
22080;SDS011;11207;59.512;18.050;2023-03-14T10:19:58;2.77;;;2.57;;
22080;SDS011;11207;59.512;18.050;2023-03-14T10:22:26;2.50;;;2.40;;
22080;SDS011;11207;59.512;18.050;2023-03-14T10:24:55;2.63;;;2.50;;
22080;SDS011;11207;59.512;18.050;2023-03-14T10:27:29;2.40;;;2.30;;
22080;SDS011;11207;59.512;18.050;2023-03-14T10:29:59;2.60;;;2.40;;
22080;SDS011;11207;59.512;18.050;2023-03-14T10:32:36;3.50;;;3.30;;
22080;SDS011;11207;59.512;18.050;2023-03-14T10:35:24;2.50;;;2.40;;
22080;SDS011;11207;59.512;18.050;2023-03-14T10:40:36;2.50;;;2.40;;
22080;SDS011;11207;59.512;18.050;2023-03-14T10:43:04;2.30;;;2.20;;
22080;SDS011;11207;59.512;18.050;2023-03-14T10:45:39;2.47;;;2.37;;
22080;SDS011;11207;59.512;18.050;2023-03-14T10:48:15;2.50;;;2.40;;
22080;SDS011;11207;59.512;18.050;2023-03-14T10:50:50;2.30;;;2.20;;
22080;SDS011;11207;59.512;18.050;2023-03-14T10:53:48;2.40;;;2.30;;
22080;SDS011;11207;59.512;18.050;2023-03-14T10:56:21;2.30;;;2.20;;
22080;SDS011;11207;59.512;18.050;2023-03-14T10:58:49;2.37;;;2.27;;
22080;SDS011;11207;59.512;18.050;2023-03-14T11:04:25;2.50;;;2.40;;
22080;SDS011;11207;59.512;18.050;2023-03-14T11:09:33;2.40;;;2.30;;
22080;SDS011;11207;59.512;18.050;2023-03-14T11:12:49;2.70;;;2.57;;
22080;SDS011;11207;59.512;18.050;2023-03-14T11:25:26;3.53;;;3.23;;
22080;SDS011;11207;59.512;18.050;2023-03-14T11:36:39;2.50;;;2.40;;
22080;SDS011;11207;59.512;18.050;2023-03-14T11:39:15;2.50;;;2.40;;
22080;SDS011;11207;59.512;18.050;2023-03-14T11:41:46;3.70;;;2.60;;
22080;SDS011;11207;59.512;18.050;2023-03-14T11:44:17;2.67;;;2.57;;
22080;SDS011;11207;59.512;18.050;2023-03-14T11:47:10;2.90;;;2.70;;
22080;SDS011;11207;59.512;18.050;2023-03-14T11:49:52;2.67;;;2.47;;
22080;SDS011;11207;59.512;18.050;2023-03-14T11:52:25;3.17;;;2.97;;
22080;SDS011;11207;59.512;18.050;2023-03-14T11:54:56;2.80;;;2.70;;
22080;SDS011;11207;59.512;18.050;2023-03-14T11:57:29;2.87;;;2.73;;
22080;SDS011;11207;59.512;18.050;2023-03-14T11:59:56;2.30;;;2.20;;
22080;SDS011;11207;59.512;18.050;2023-03-14T12:02:53;2.30;;;2.20;;
22080;SDS011;11207;59.512;18.050;2023-03-14T12:11:16;2.30;;;2.20;;
22080;SDS011;11207;59.512;18.050;2023-03-14T12:13:46;2.40;;;2.30;;
22080;SDS011;11207;59.512;18.050;2023-03-14T12:16:25;2.50;;;2.40;;
22080;SDS011;11207;59.512;18.050;2023-03-14T12:18:57;2.20;;;2.10;;
22080;SDS011;11207;59.512;18.050;2023-03-14T12:24:18;2.50;;;2.40;;
22080;SDS011;11207;59.512;18.050;2023-03-14T12:26:59;2.50;;;2.40;;
22080;SDS011;11207;59.512;18.050;2023-03-14T12:29:26;2.67;;;2.57;;
22080;SDS011;11207;59.512;18.050;2023-03-14T12:34:33;2.60;;;2.50;;
22080;SDS011;11207;59.512;18.050;2023-03-14T12:37:02;2.73;;;2.63;;
22080;SDS011;11207;59.512;18.050;2023-03-14T12:45:26;2.67;;;2.50;;
22080;SDS011;11207;59.512;18.050;2023-03-14T12:48:09;2.50;;;2.40;;
22080;SDS011;11207;59.512;18.050;2023-03-14T12:55:56;2.80;;;2.60;;
22080;SDS011;11207;59.512;18.050;2023-03-14T13:01:30;2.47;;;2.37;;
22080;SDS011;11207;59.512;18.050;2023-03-14T13:04:03;2.43;;;2.33;;
22080;SDS011;11207;59.512;18.050;2023-03-14T13:11:54;2.40;;;2.30;;
22080;SDS011;11207;59.512;18.050;2023-03-14T13:14:22;2.47;;;2.37;;
22080;SDS011;11207;59.512;18.050;2023-03-14T13:16:48;2.30;;;2.20;;
22080;SDS011;11207;59.512;18.050;2023-03-14T13:19:19;2.43;;;2.33;;
22080;SDS011;11207;59.512;18.050;2023-03-14T13:21:48;2.47;;;2.37;;
22080;SDS011;11207;59.512;18.050;2023-03-14T13:24:25;2.40;;;2.30;;
22080;SDS011;11207;59.512;18.050;2023-03-14T13:26:55;2.40;;;2.30;;
22080;SDS011;11207;59.512;18.050;2023-03-14T13:31:56;2.40;;;2.30;;
22080;SDS011;11207;59.512;18.050;2023-03-14T13:34:34;2.20;;;2.10;;
22080;SDS011;11207;59.512;18.050;2023-03-14T13:37:00;2.60;;;2.50;;
22080;SDS011;11207;59.512;18.050;2023-03-14T13:39:26;2.50;;;2.40;;
22080;SDS011;11207;59.512;18.050;2023-03-14T13:41:55;2.40;;;2.30;;
22080;SDS011;11207;59.512;18.050;2023-03-14T13:44:25;2.37;;;2.27;;
22080;SDS011;11207;59.512;18.050;2023-03-14T13:46:51;2.30;;;2.20;;
22080;SDS011;11207;59.512;18.050;2023-03-14T13:49:22;2.40;;;2.30;;
22080;SDS011;11207;59.512;18.050;2023-03-14T13:51:50;2.53;;;2.43;;
22080;SDS011;11207;59.512;18.050;2023-03-14T13:54:16;2.67;;;2.47;;
22080;SDS011;11207;59.512;18.050;2023-03-14T13:56:44;2.60;;;2.50;;
22080;SDS011;11207;59.512;18.050;2023-03-14T13:59:23;2.33;;;2.23;;
22080;SDS011;11207;59.512;18.050;2023-03-14T14:01:51;2.37;;;2.27;;
22080;SDS011;11207;59.512;18.050;2023-03-14T14:04:18;2.33;;;2.23;;
22080;SDS011;11207;59.512;18.050;2023-03-14T14:06:52;2.63;;;2.53;;
22080;SDS011;11207;59.512;18.050;2023-03-14T14:09:20;2.60;;;2.50;;
22080;SDS011;11207;59.512;18.050;2023-03-14T14:14:25;2.50;;;2.40;;
22080;SDS011;11207;59.512;18.050;2023-03-14T14:16:58;2.50;;;2.40;;
22080;SDS011;11207;59.512;18.050;2023-03-14T14:19:27;2.40;;;2.30;;
22080;SDS011;11207;59.512;18.050;2023-03-14T14:21:54;2.30;;;2.20;;
22080;SDS011;11207;59.512;18.050;2023-03-14T14:24:22;2.40;;;2.30;;
22080;SDS011;11207;59.512;18.050;2023-03-14T14:26:51;2.60;;;2.50;;
22080;SDS011;11207;59.512;18.050;2023-03-14T14:29:31;2.77;;;2.60;;
22080;SDS011;11207;59.512;18.050;2023-03-14T14:34:46;2.60;;;2.50;;
22080;SDS011;11207;59.512;18.050;2023-03-14T14:39:48;2.80;;;2.70;;
22080;SDS011;11207;59.512;18.050;2023-03-14T14:42:17;2.70;;;2.60;;
22080;SDS011;11207;59.512;18.050;2023-03-14T14:44:47;2.67;;;2.57;;
22080;SDS011;11207;59.512;18.050;2023-03-14T14:47:16;2.57;;;2.47;;
22080;SDS011;11207;59.512;18.050;2023-03-14T14:49:45;2.80;;;2.63;;
22080;SDS011;11207;59.512;18.050;2023-03-14T14:52:14;2.70;;;2.60;;
22080;SDS011;11207;59.512;18.050;2023-03-14T14:54:45;3.03;;;2.83;;
22080;SDS011;11207;59.512;18.050;2023-03-14T14:57:18;2.70;;;2.50;;
22080;SDS011;11207;59.512;18.050;2023-03-14T14:59:47;2.60;;;2.50;;
22080;SDS011;11207;59.512;18.050;2023-03-14T15:02:28;2.47;;;2.37;;
22080;SDS011;11207;59.512;18.050;2023-03-14T15:05:27;2.70;;;2.60;;
22080;SDS011;11207;59.512;18.050;2023-03-14T15:07:56;2.80;;;2.60;;
22080;SDS011;11207;59.512;18.050;2023-03-14T15:10:23;2.67;;;2.57;;
22080;SDS011;11207;59.512;18.050;2023-03-14T15:12:49;2.50;;;2.40;;
22080;SDS011;11207;59.512;18.050;2023-03-14T15:15:16;2.50;;;2.40;;
22080;SDS011;11207;59.512;18.050;2023-03-14T15:17:43;2.60;;;2.50;;
22080;SDS011;11207;59.512;18.050;2023-03-14T15:20:13;2.90;;;2.70;;
22080;SDS011;11207;59.512;18.050;2023-03-14T15:22:41;2.60;;;2.50;;
22080;SDS011;11207;59.512;18.050;2023-03-14T15:25:07;3.07;;;2.87;;
22080;SDS011;11207;59.512;18.050;2023-03-14T15:27:35;2.93;;;2.73;;
22080;SDS011;11207;59.512;18.050;2023-03-14T15:30:01;2.60;;;2.50;;
22080;SDS011;11207;59.512;18.050;2023-03-14T15:32:27;2.60;;;2.50;;
22080;SDS011;11207;59.512;18.050;2023-03-14T15:34:55;2.73;;;2.63;;
22080;SDS011;11207;59.512;18.050;2023-03-14T15:37:21;3.00;;;2.80;;
22080;SDS011;11207;59.512;18.050;2023-03-14T15:39:46;2.90;;;2.80;;
22080;SDS011;11207;59.512;18.050;2023-03-14T15:42:12;2.67;;;2.50;;
22080;SDS011;11207;59.512;18.050;2023-03-14T15:44:38;2.73;;;2.63;;
22080;SDS011;11207;59.512;18.050;2023-03-14T15:47:04;2.80;;;2.70;;
22080;SDS011;11207;59.512;18.050;2023-03-14T15:49:31;2.70;;;2.60;;
22080;SDS011;11207;59.512;18.050;2023-03-14T15:51:57;3.10;;;2.90;;
22080;SDS011;11207;59.512;18.050;2023-03-14T15:54:23;2.97;;;2.80;;
22080;SDS011;11207;59.512;18.050;2023-03-14T15:56:53;2.87;;;2.77;;